sensor_id;sensor_type;location;lat;lon;timestamp;P1;durP1;ratioP1;P2;durP2;ratioP2
27985;SDS011;15453;53.692;10.168;2023-08-08T00:01:25;5.68;;;2.45;;
27985;SDS011;15453;53.692;10.168;2023-08-08T00:03:50;6.18;;;1.90;;
27985;SDS011;15453;53.692;10.168;2023-08-08T00:06:15;6.70;;;2.03;;
27985;SDS011;15453;53.692;10.168;2023-08-08T00:08:40;5.60;;;2.13;;
27985;SDS011;15453;53.692;10.168;2023-08-08T00:11:06;4.60;;;1.70;;
27985;SDS011;15453;53.692;10.168;2023-08-08T00:13:31;6.57;;;1.77;;
27985;SDS011;15453;53.692;10.168;2023-08-08T00:15:57;6.40;;;2.15;;
27985;SDS011;15453;53.692;10.168;2023-08-08T00:18:22;4.65;;;2.13;;
27985;SDS011;15453;53.692;10.168;2023-08-08T00:20:47;10.73;;;2.60;;
27985;SDS011;15453;53.692;10.168;2023-08-08T00:23:13;5.40;;;2.00;;
27985;SDS011;15453;53.692;10.168;2023-08-08T00:25:38;9.65;;;2.05;;
27985;SDS011;15453;53.692;10.168;2023-08-08T00:28:03;4.90;;;1.70;;
27985;SDS011;15453;53.692;10.168;2023-08-08T00:30:28;4.10;;;2.10;;
27985;SDS011;15453;53.692;10.168;2023-08-08T00:32:54;9.23;;;2.22;;
27985;SDS011;15453;53.692;10.168;2023-08-08T00:35:19;10.18;;;2.58;;
27985;SDS011;15453;53.692;10.168;2023-08-08T00:37:44;6.43;;;2.03;;
27985;SDS011;15453;53.692;10.168;2023-08-08T00:40:10;6.15;;;2.22;;
27985;SDS011;15453;53.692;10.168;2023-08-08T00:42:35;3.70;;;1.95;;
27985;SDS011;15453;53.692;10.168;2023-08-08T00:45:00;5.55;;;1.90;;
27985;SDS011;15453;53.692;10.168;2023-08-08T00:47:29;3.70;;;1.83;;
27985;SDS011;15453;53.692;10.168;2023-08-08T00:49:59;5.40;;;2.10;;
27985;SDS011;15453;53.692;10.168;2023-08-08T00:52:25;4.55;;;2.08;;
27985;SDS011;15453;53.692;10.168;2023-08-08T00:54:51;5.82;;;1.80;;
27985;SDS011;15453;53.692;10.168;2023-08-08T00:57:17;4.28;;;2.10;;
27985;SDS011;15453;53.692;10.168;2023-08-08T00:59:43;3.63;;;2.25;;
27985;SDS011;15453;53.692;10.168;2023-08-08T01:02:08;6.00;;;2.00;;
27985;SDS011;15453;53.692;10.168;2023-08-08T01:04:33;5.88;;;2.25;;
27985;SDS011;15453;53.692;10.168;2023-08-08T01:07:14;6.20;;;1.88;;
27985;SDS011;15453;53.692;10.168;2023-08-08T01:09:54;6.30;;;2.03;;
27985;SDS011;15453;53.692;10.168;2023-08-08T01:12:22;3.97;;;2.15;;
27985;SDS011;15453;53.692;10.168;2023-08-08T01:14:50;4.57;;;2.00;;
27985;SDS011;15453;53.692;10.168;2023-08-08T01:17:16;3.85;;;1.80;;
27985;SDS011;15453;53.692;10.168;2023-08-08T01:19:41;5.43;;;1.70;;
27985;SDS011;15453;53.692;10.168;2023-08-08T01:22:09;3.42;;;1.52;;
27985;SDS011;15453;53.692;10.168;2023-08-08T01:24:41;5.00;;;1.80;;
27985;SDS011;15453;53.692;10.168;2023-08-08T01:27:08;4.10;;;1.65;;
27985;SDS011;15453;53.692;10.168;2023-08-08T01:29:33;5.68;;;2.08;;
27985;SDS011;15453;53.692;10.168;2023-08-08T01:31:59;4.60;;;1.75;;
27985;SDS011;15453;53.692;10.168;2023-08-08T01:34:24;5.60;;;1.60;;
27985;SDS011;15453;53.692;10.168;2023-08-08T01:36:51;3.10;;;1.63;;
27985;SDS011;15453;53.692;10.168;2023-08-08T01:39:22;7.38;;;2.17;;
27985;SDS011;15453;53.692;10.168;2023-08-08T01:41:51;4.10;;;1.60;;
27985;SDS011;15453;53.692;10.168;2023-08-08T01:44:18;4.15;;;1.60;;
27985;SDS011;15453;53.692;10.168;2023-08-08T01:46:44;3.47;;;1.55;;
27985;SDS011;15453;53.692;10.168;2023-08-08T01:49:10;3.17;;;1.45;;
27985;SDS011;15453;53.692;10.168;2023-08-08T01:51:35;2.80;;;1.60;;
27985;SDS011;15453;53.692;10.168;2023-08-08T01:54:00;3.20;;;1.40;;
27985;SDS011;15453;53.692;10.168;2023-08-08T01:56:26;4.10;;;1.80;;
27985;SDS011;15453;53.692;10.168;2023-08-08T01:58:51;3.85;;;1.55;;
27985;SDS011;15453;53.692;10.168;2023-08-08T02:01:16;5.68;;;1.65;;
27985;SDS011;15453;53.692;10.168;2023-08-08T02:03:41;3.67;;;1.70;;
27985;SDS011;15453;53.692;10.168;2023-08-08T02:06:07;3.65;;;1.45;;
27985;SDS011;15453;53.692;10.168;2023-08-08T02:08:32;5.75;;;1.77;;
27985;SDS011;15453;53.692;10.168;2023-08-08T02:10:57;4.03;;;1.48;;
27985;SDS011;15453;53.692;10.168;2023-08-08T02:13:22;4.05;;;1.70;;
27985;SDS011;15453;53.692;10.168;2023-08-08T02:15:47;3.97;;;1.55;;
27985;SDS011;15453;53.692;10.168;2023-08-08T02:18:13;4.68;;;1.45;;
27985;SDS011;15453;53.692;10.168;2023-08-08T02:20:38;6.75;;;1.73;;
27985;SDS011;15453;53.692;10.168;2023-08-08T02:23:03;3.53;;;1.52;;
27985;SDS011;15453;53.692;10.168;2023-08-08T02:25:29;4.18;;;1.75;;
27985;SDS011;15453;53.692;10.168;2023-08-08T02:27:55;4.43;;;1.63;;
27985;SDS011;15453;53.692;10.168;2023-08-08T02:30:21;6.47;;;1.67;;
27985;SDS011;15453;53.692;10.168;2023-08-08T02:32:46;5.03;;;1.75;;
27985;SDS011;15453;53.692;10.168;2023-08-08T02:35:11;3.90;;;1.60;;
27985;SDS011;15453;53.692;10.168;2023-08-08T02:37:36;3.92;;;1.70;;
27985;SDS011;15453;53.692;10.168;2023-08-08T02:40:02;7.68;;;1.70;;
27985;SDS011;15453;53.692;10.168;2023-08-08T02:42:27;4.95;;;1.67;;
27985;SDS011;15453;53.692;10.168;2023-08-08T02:44:53;5.57;;;1.75;;
27985;SDS011;15453;53.692;10.168;2023-08-08T02:47:18;3.22;;;1.40;;
27985;SDS011;15453;53.692;10.168;2023-08-08T02:49:43;7.32;;;1.90;;
27985;SDS011;15453;53.692;10.168;2023-08-08T02:52:08;4.00;;;1.35;;
27985;SDS011;15453;53.692;10.168;2023-08-08T02:54:34;9.80;;;1.55;;
27985;SDS011;15453;53.692;10.168;2023-08-08T02:56:59;10.02;;;2.00;;
27985;SDS011;15453;53.692;10.168;2023-08-08T02:59:25;5.10;;;1.60;;
27985;SDS011;15453;53.692;10.168;2023-08-08T03:01:50;6.45;;;1.65;;
27985;SDS011;15453;53.692;10.168;2023-08-08T03:04:15;4.25;;;1.33;;
27985;SDS011;15453;53.692;10.168;2023-08-08T03:06:41;3.67;;;1.33;;
27985;SDS011;15453;53.692;10.168;2023-08-08T03:09:06;3.10;;;1.17;;
27985;SDS011;15453;53.692;10.168;2023-08-08T03:11:31;5.38;;;1.38;;
27985;SDS011;15453;53.692;10.168;2023-08-08T03:13:57;6.07;;;1.92;;
27985;SDS011;15453;53.692;10.168;2023-08-08T03:16:22;3.58;;;1.40;;
27985;SDS011;15453;53.692;10.168;2023-08-08T03:18:47;3.10;;;1.27;;
27985;SDS011;15453;53.692;10.168;2023-08-08T03:21:12;3.08;;;1.30;;
27985;SDS011;15453;53.692;10.168;2023-08-08T03:23:38;3.22;;;1.33;;
27985;SDS011;15453;53.692;10.168;2023-08-08T03:26:03;3.25;;;1.33;;
27985;SDS011;15453;53.692;10.168;2023-08-08T03:28:28;5.05;;;1.50;;
27985;SDS011;15453;53.692;10.168;2023-08-08T03:30:54;4.22;;;1.30;;
27985;SDS011;15453;53.692;10.168;2023-08-08T03:33:19;6.50;;;1.35;;
27985;SDS011;15453;53.692;10.168;2023-08-08T03:35:44;4.68;;;1.02;;
27985;SDS011;15453;53.692;10.168;2023-08-08T03:38:09;3.20;;;1.20;;
27985;SDS011;15453;53.692;10.168;2023-08-08T03:40:35;4.63;;;1.27;;
27985;SDS011;15453;53.692;10.168;2023-08-08T03:43:00;3.38;;;1.13;;
27985;SDS011;15453;53.692;10.168;2023-08-08T03:45:25;5.43;;;1.70;;
27985;SDS011;15453;53.692;10.168;2023-08-08T03:47:51;2.65;;;1.05;;
27985;SDS011;15453;53.692;10.168;2023-08-08T03:50:17;5.32;;;1.58;;
27985;SDS011;15453;53.692;10.168;2023-08-08T03:52:42;4.70;;;1.58;;
27985;SDS011;15453;53.692;10.168;2023-08-08T03:55:07;3.80;;;1.45;;
27985;SDS011;15453;53.692;10.168;2023-08-08T03:57:32;2.00;;;1.02;;
27985;SDS011;15453;53.692;10.168;2023-08-08T03:59:58;4.35;;;1.65;;
27985;SDS011;15453;53.692;10.168;2023-08-08T04:02:24;7.97;;;1.70;;
27985;SDS011;15453;53.692;10.168;2023-08-08T04:04:50;4.85;;;1.40;;
27985;SDS011;15453;53.692;10.168;2023-08-08T04:07:16;4.03;;;1.17;;
27985;SDS011;15453;53.692;10.168;2023-08-08T04:09:42;6.65;;;1.45;;
27985;SDS011;15453;53.692;10.168;2023-08-08T04:12:07;4.68;;;1.50;;
27985;SDS011;15453;53.692;10.168;2023-08-08T04:14:33;4.57;;;1.25;;
27985;SDS011;15453;53.692;10.168;2023-08-08T04:16:58;5.82;;;1.45;;
27985;SDS011;15453;53.692;10.168;2023-08-08T04:19:24;4.20;;;1.10;;
27985;SDS011;15453;53.692;10.168;2023-08-08T04:21:49;5.15;;;1.83;;
27985;SDS011;15453;53.692;10.168;2023-08-08T04:24:14;5.75;;;1.30;;
27985;SDS011;15453;53.692;10.168;2023-08-08T04:26:39;3.42;;;1.17;;
27985;SDS011;15453;53.692;10.168;2023-08-08T04:29:05;4.05;;;1.20;;
27985;SDS011;15453;53.692;10.168;2023-08-08T04:31:31;5.57;;;1.55;;
27985;SDS011;15453;53.692;10.168;2023-08-08T04:33:56;4.45;;;1.30;;
27985;SDS011;15453;53.692;10.168;2023-08-08T04:36:24;3.22;;;1.13;;
27985;SDS011;15453;53.692;10.168;2023-08-08T04:38:50;3.00;;;0.88;;
27985;SDS011;15453;53.692;10.168;2023-08-08T04:41:15;4.75;;;1.20;;
27985;SDS011;15453;53.692;10.168;2023-08-08T04:43:41;2.95;;;1.17;;
27985;SDS011;15453;53.692;10.168;2023-08-08T04:46:06;5.25;;;1.33;;
27985;SDS011;15453;53.692;10.168;2023-08-08T04:48:31;2.75;;;1.13;;
27985;SDS011;15453;53.692;10.168;2023-08-08T04:50:57;2.97;;;1.13;;
27985;SDS011;15453;53.692;10.168;2023-08-08T04:53:22;4.20;;;1.40;;
27985;SDS011;15453;53.692;10.168;2023-08-08T04:55:48;3.58;;;1.17;;
27985;SDS011;15453;53.692;10.168;2023-08-08T04:58:13;4.60;;;1.10;;
27985;SDS011;15453;53.692;10.168;2023-08-08T05:00:38;4.18;;;1.00;;
27985;SDS011;15453;53.692;10.168;2023-08-08T05:03:04;2.88;;;0.90;;
27985;SDS011;15453;53.692;10.168;2023-08-08T05:05:29;5.20;;;1.77;;
27985;SDS011;15453;53.692;10.168;2023-08-08T05:07:54;3.78;;;1.17;;
27985;SDS011;15453;53.692;10.168;2023-08-08T05:10:20;3.83;;;1.45;;
27985;SDS011;15453;53.692;10.168;2023-08-08T05:12:45;3.10;;;0.98;;
27985;SDS011;15453;53.692;10.168;2023-08-08T05:15:10;3.95;;;1.33;;
27985;SDS011;15453;53.692;10.168;2023-08-08T05:17:36;3.03;;;1.10;;
27985;SDS011;15453;53.692;10.168;2023-08-08T05:20:01;4.13;;;1.15;;
27985;SDS011;15453;53.692;10.168;2023-08-08T05:22:26;2.42;;;0.98;;
27985;SDS011;15453;53.692;10.168;2023-08-08T05:24:51;3.00;;;0.98;;
27985;SDS011;15453;53.692;10.168;2023-08-08T05:27:17;4.22;;;1.25;;
27985;SDS011;15453;53.692;10.168;2023-08-08T05:29:42;3.53;;;1.02;;
27985;SDS011;15453;53.692;10.168;2023-08-08T05:32:07;3.08;;;1.20;;
27985;SDS011;15453;53.692;10.168;2023-08-08T05:34:33;2.92;;;0.95;;
27985;SDS011;15453;53.692;10.168;2023-08-08T05:36:59;3.33;;;1.40;;
27985;SDS011;15453;53.692;10.168;2023-08-08T05:39:24;4.43;;;1.20;;
27985;SDS011;15453;53.692;10.168;2023-08-08T05:41:49;2.08;;;0.95;;
27985;SDS011;15453;53.692;10.168;2023-08-08T05:44:14;2.65;;;0.80;;
27985;SDS011;15453;53.692;10.168;2023-08-08T05:46:40;5.03;;;1.30;;
27985;SDS011;15453;53.692;10.168;2023-08-08T05:49:05;5.50;;;1.50;;
27985;SDS011;15453;53.692;10.168;2023-08-08T05:51:31;5.32;;;1.08;;
27985;SDS011;15453;53.692;10.168;2023-08-08T05:53:56;4.72;;;1.20;;
27985;SDS011;15453;53.692;10.168;2023-08-08T05:56:22;5.57;;;1.15;;
27985;SDS011;15453;53.692;10.168;2023-08-08T05:58:47;5.30;;;1.15;;
27985;SDS011;15453;53.692;10.168;2023-08-08T06:01:12;7.03;;;1.30;;
27985;SDS011;15453;53.692;10.168;2023-08-08T06:03:37;5.13;;;1.15;;
27985;SDS011;15453;53.692;10.168;2023-08-08T06:06:03;3.67;;;1.13;;
27985;SDS011;15453;53.692;10.168;2023-08-08T06:08:29;16.58;;;1.50;;
27985;SDS011;15453;53.692;10.168;2023-08-08T06:10:54;4.10;;;1.63;;
27985;SDS011;15453;53.692;10.168;2023-08-08T06:13:20;8.50;;;3.60;;
27985;SDS011;15453;53.692;10.168;2023-08-08T06:15:45;4.68;;;2.22;;
27985;SDS011;15453;53.692;10.168;2023-08-08T06:18:10;4.65;;;1.50;;
27985;SDS011;15453;53.692;10.168;2023-08-08T06:20:35;6.00;;;1.73;;
27985;SDS011;15453;53.692;10.168;2023-08-08T06:23:01;4.05;;;1.77;;
27985;SDS011;15453;53.692;10.168;2023-08-08T06:25:26;6.22;;;1.75;;
27985;SDS011;15453;53.692;10.168;2023-08-08T06:27:53;7.57;;;1.02;;
27985;SDS011;15453;53.692;10.168;2023-08-08T06:30:18;2.30;;;0.90;;
27985;SDS011;15453;53.692;10.168;2023-08-08T06:32:43;6.38;;;1.27;;
27985;SDS011;15453;53.692;10.168;2023-08-08T06:35:08;8.60;;;1.23;;
27985;SDS011;15453;53.692;10.168;2023-08-08T06:37:34;4.80;;;1.35;;
27985;SDS011;15453;53.692;10.168;2023-08-08T06:39:59;2.13;;;0.98;;
27985;SDS011;15453;53.692;10.168;2023-08-08T06:42:24;4.95;;;1.60;;
27985;SDS011;15453;53.692;10.168;2023-08-08T06:44:49;4.00;;;1.23;;
27985;SDS011;15453;53.692;10.168;2023-08-08T06:47:15;2.38;;;1.10;;
27985;SDS011;15453;53.692;10.168;2023-08-08T06:49:40;3.42;;;1.10;;
27985;SDS011;15453;53.692;10.168;2023-08-08T06:52:05;6.25;;;1.20;;
27985;SDS011;15453;53.692;10.168;2023-08-08T06:54:31;2.38;;;1.25;;
27985;SDS011;15453;53.692;10.168;2023-08-08T06:56:56;4.63;;;1.45;;
27985;SDS011;15453;53.692;10.168;2023-08-08T06:59:22;4.38;;;1.20;;
27985;SDS011;15453;53.692;10.168;2023-08-08T07:01:48;5.10;;;1.35;;
27985;SDS011;15453;53.692;10.168;2023-08-08T07:04:14;4.88;;;1.40;;
27985;SDS011;15453;53.692;10.168;2023-08-08T07:06:39;4.90;;;1.33;;
27985;SDS011;15453;53.692;10.168;2023-08-08T07:09:04;5.88;;;1.52;;
27985;SDS011;15453;53.692;10.168;2023-08-08T07:11:31;3.78;;;1.05;;
27985;SDS011;15453;53.692;10.168;2023-08-08T07:13:56;5.47;;;1.45;;
27985;SDS011;15453;53.692;10.168;2023-08-08T07:16:21;3.83;;;1.27;;
27985;SDS011;15453;53.692;10.168;2023-08-08T07:18:46;3.00;;;1.17;;
27985;SDS011;15453;53.692;10.168;2023-08-08T07:21:12;5.82;;;1.65;;
27985;SDS011;15453;53.692;10.168;2023-08-08T07:23:37;4.95;;;1.40;;
27985;SDS011;15453;53.692;10.168;2023-08-08T07:26:02;2.67;;;1.15;;
27985;SDS011;15453;53.692;10.168;2023-08-08T07:28:27;4.10;;;1.17;;
27985;SDS011;15453;53.692;10.168;2023-08-08T07:30:52;2.78;;;1.30;;
27985;SDS011;15453;53.692;10.168;2023-08-08T07:33:18;6.57;;;1.10;;
27985;SDS011;15453;53.692;10.168;2023-08-08T07:35:43;7.18;;;1.50;;
27985;SDS011;15453;53.692;10.168;2023-08-08T07:38:08;4.55;;;1.52;;
27985;SDS011;15453;53.692;10.168;2023-08-08T07:40:34;3.83;;;1.48;;
27985;SDS011;15453;53.692;10.168;2023-08-08T07:42:59;3.03;;;1.15;;
27985;SDS011;15453;53.692;10.168;2023-08-08T07:45:24;4.93;;;1.25;;
27985;SDS011;15453;53.692;10.168;2023-08-08T07:47:50;3.88;;;1.10;;
27985;SDS011;15453;53.692;10.168;2023-08-08T07:50:15;2.90;;;1.00;;
27985;SDS011;15453;53.692;10.168;2023-08-08T07:52:41;1.80;;;0.90;;
27985;SDS011;15453;53.692;10.168;2023-08-08T07:55:07;3.38;;;1.15;;
27985;SDS011;15453;53.692;10.168;2023-08-08T07:57:32;3.88;;;1.00;;
27985;SDS011;15453;53.692;10.168;2023-08-08T08:00:01;4.57;;;1.00;;
27985;SDS011;15453;53.692;10.168;2023-08-08T08:02:32;3.63;;;1.10;;
27985;SDS011;15453;53.692;10.168;2023-08-08T08:04:58;4.63;;;1.23;;
27985;SDS011;15453;53.692;10.168;2023-08-08T08:07:23;2.83;;;1.10;;
27985;SDS011;15453;53.692;10.168;2023-08-08T08:09:48;2.50;;;1.20;;
27985;SDS011;15453;53.692;10.168;2023-08-08T08:12:14;4.97;;;1.13;;
27985;SDS011;15453;53.692;10.168;2023-08-08T08:14:39;4.93;;;1.20;;
27985;SDS011;15453;53.692;10.168;2023-08-08T08:17:05;4.63;;;1.52;;
27985;SDS011;15453;53.692;10.168;2023-08-08T08:19:30;4.25;;;1.50;;
27985;SDS011;15453;53.692;10.168;2023-08-08T08:21:55;6.55;;;1.85;;
27985;SDS011;15453;53.692;10.168;2023-08-08T08:24:21;2.90;;;1.20;;
27985;SDS011;15453;53.692;10.168;2023-08-08T08:26:46;3.67;;;1.15;;
27985;SDS011;15453;53.692;10.168;2023-08-08T08:29:11;3.63;;;1.10;;
27985;SDS011;15453;53.692;10.168;2023-08-08T08:31:36;3.67;;;1.38;;
27985;SDS011;15453;53.692;10.168;2023-08-08T08:34:03;8.35;;;1.63;;
27985;SDS011;15453;53.692;10.168;2023-08-08T08:36:29;8.80;;;2.35;;
27985;SDS011;15453;53.692;10.168;2023-08-08T08:38:54;10.57;;;1.55;;
27985;SDS011;15453;53.692;10.168;2023-08-08T08:41:20;5.88;;;1.90;;
27985;SDS011;15453;53.692;10.168;2023-08-08T08:43:50;6.03;;;1.67;;
27985;SDS011;15453;53.692;10.168;2023-08-08T08:46:17;6.18;;;1.40;;
27985;SDS011;15453;53.692;10.168;2023-08-08T08:48:45;5.38;;;1.73;;
27985;SDS011;15453;53.692;10.168;2023-08-08T08:51:13;3.88;;;1.38;;
27985;SDS011;15453;53.692;10.168;2023-08-08T08:53:40;3.30;;;1.20;;
27985;SDS011;15453;53.692;10.168;2023-08-08T08:56:08;2.30;;;0.93;;
27985;SDS011;15453;53.692;10.168;2023-08-08T08:58:33;2.05;;;1.40;;
27985;SDS011;15453;53.692;10.168;2023-08-08T09:00:58;3.70;;;0.85;;
27985;SDS011;15453;53.692;10.168;2023-08-08T09:03:25;2.75;;;1.02;;
27985;SDS011;15453;53.692;10.168;2023-08-08T09:05:50;4.07;;;1.27;;
27985;SDS011;15453;53.692;10.168;2023-08-08T09:08:16;4.10;;;1.20;;
27985;SDS011;15453;53.692;10.168;2023-08-08T09:10:42;2.60;;;1.25;;
27985;SDS011;15453;53.692;10.168;2023-08-08T09:13:07;3.60;;;1.40;;
27985;SDS011;15453;53.692;10.168;2023-08-08T09:15:33;6.03;;;1.30;;
27985;SDS011;15453;53.692;10.168;2023-08-08T09:17:59;3.80;;;0.93;;
27985;SDS011;15453;53.692;10.168;2023-08-08T09:20:25;3.47;;;1.23;;
27985;SDS011;15453;53.692;10.168;2023-08-08T09:22:53;5.22;;;1.30;;
27985;SDS011;15453;53.692;10.168;2023-08-08T09:25:18;3.30;;;0.95;;
27985;SDS011;15453;53.692;10.168;2023-08-08T09:27:44;4.43;;;1.30;;
27985;SDS011;15453;53.692;10.168;2023-08-08T09:30:09;2.67;;;1.00;;
27985;SDS011;15453;53.692;10.168;2023-08-08T09:32:36;4.32;;;1.25;;
27985;SDS011;15453;53.692;10.168;2023-08-08T09:35:01;1.85;;;0.93;;
27985;SDS011;15453;53.692;10.168;2023-08-08T09:37:27;2.28;;;0.93;;
27985;SDS011;15453;53.692;10.168;2023-08-08T09:39:59;3.08;;;1.17;;
27985;SDS011;15453;53.692;10.168;2023-08-08T09:42:26;5.18;;;1.88;;
27985;SDS011;15453;53.692;10.168;2023-08-08T09:44:52;4.03;;;1.20;;
27985;SDS011;15453;53.692;10.168;2023-08-08T09:47:18;5.88;;;1.15;;
27985;SDS011;15453;53.692;10.168;2023-08-08T09:49:43;3.25;;;1.10;;
27985;SDS011;15453;53.692;10.168;2023-08-08T09:52:09;4.43;;;1.00;;
27985;SDS011;15453;53.692;10.168;2023-08-08T09:54:35;5.32;;;1.40;;
27985;SDS011;15453;53.692;10.168;2023-08-08T09:57:03;3.45;;;1.00;;
27985;SDS011;15453;53.692;10.168;2023-08-08T09:59:29;4.38;;;1.00;;
27985;SDS011;15453;53.692;10.168;2023-08-08T10:01:54;4.15;;;1.20;;
27985;SDS011;15453;53.692;10.168;2023-08-08T10:04:22;3.15;;;1.20;;
27985;SDS011;15453;53.692;10.168;2023-08-08T10:06:48;3.20;;;0.90;;
27985;SDS011;15453;53.692;10.168;2023-08-08T10:09:13;3.50;;;1.10;;
27985;SDS011;15453;53.692;10.168;2023-08-08T10:11:39;3.75;;;0.90;;
27985;SDS011;15453;53.692;10.168;2023-08-08T10:14:07;1.65;;;1.00;;
27985;SDS011;15453;53.692;10.168;2023-08-08T10:16:36;3.78;;;1.05;;
27985;SDS011;15453;53.692;10.168;2023-08-08T10:19:03;2.80;;;0.75;;
27985;SDS011;15453;53.692;10.168;2023-08-08T10:21:33;2.65;;;0.80;;
27985;SDS011;15453;53.692;10.168;2023-08-08T10:24:07;5.03;;;0.73;;
27985;SDS011;15453;53.692;10.168;2023-08-08T10:26:33;3.72;;;0.68;;
27985;SDS011;15453;53.692;10.168;2023-08-08T10:29:18;2.22;;;0.88;;
27985;SDS011;15453;53.692;10.168;2023-08-08T10:31:50;3.65;;;1.05;;
27985;SDS011;15453;53.692;10.168;2023-08-08T10:34:26;3.60;;;0.90;;
27985;SDS011;15453;53.692;10.168;2023-08-08T10:37:03;4.47;;;0.82;;
27985;SDS011;15453;53.692;10.168;2023-08-08T10:39:29;2.25;;;0.90;;
27985;SDS011;15453;53.692;10.168;2023-08-08T10:41:59;4.07;;;1.00;;
27985;SDS011;15453;53.692;10.168;2023-08-08T10:44:27;1.80;;;0.90;;
27985;SDS011;15453;53.692;10.168;2023-08-08T10:46:53;2.28;;;0.98;;
27985;SDS011;15453;53.692;10.168;2023-08-08T10:49:18;3.28;;;1.08;;
27985;SDS011;15453;53.692;10.168;2023-08-08T10:51:44;2.25;;;1.08;;
27985;SDS011;15453;53.692;10.168;2023-08-08T10:54:24;2.10;;;0.80;;
27985;SDS011;15453;53.692;10.168;2023-08-08T10:56:56;3.50;;;1.27;;
27985;SDS011;15453;53.692;10.168;2023-08-08T10:59:24;3.15;;;1.02;;
27985;SDS011;15453;53.692;10.168;2023-08-08T11:01:51;5.70;;;1.20;;
27985;SDS011;15453;53.692;10.168;2023-08-08T11:04:23;1.50;;;0.73;;
27985;SDS011;15453;53.692;10.168;2023-08-08T11:06:52;3.20;;;0.93;;
27985;SDS011;15453;53.692;10.168;2023-08-08T11:09:19;3.38;;;1.02;;
27985;SDS011;15453;53.692;10.168;2023-08-08T11:11:44;1.90;;;0.77;;
27985;SDS011;15453;53.692;10.168;2023-08-08T11:14:10;4.30;;;1.00;;
27985;SDS011;15453;53.692;10.168;2023-08-08T11:16:37;3.78;;;1.23;;
27985;SDS011;15453;53.692;10.168;2023-08-08T11:19:02;3.40;;;1.10;;
27985;SDS011;15453;53.692;10.168;2023-08-08T11:21:28;2.83;;;0.98;;
27985;SDS011;15453;53.692;10.168;2023-08-08T11:23:53;4.45;;;1.10;;
27985;SDS011;15453;53.692;10.168;2023-08-08T11:26:18;2.22;;;0.90;;
27985;SDS011;15453;53.692;10.168;2023-08-08T11:28:50;4.22;;;1.20;;
27985;SDS011;15453;53.692;10.168;2023-08-08T11:31:17;5.22;;;1.10;;
27985;SDS011;15453;53.692;10.168;2023-08-08T11:33:46;2.67;;;0.82;;
27985;SDS011;15453;53.692;10.168;2023-08-08T11:36:13;3.10;;;1.10;;
27985;SDS011;15453;53.692;10.168;2023-08-08T11:38:39;4.18;;;1.23;;
27985;SDS011;15453;53.692;10.168;2023-08-08T11:41:05;2.50;;;0.82;;
27985;SDS011;15453;53.692;10.168;2023-08-08T11:43:31;2.22;;;0.88;;
27985;SDS011;15453;53.692;10.168;2023-08-08T11:45:59;1.80;;;0.75;;
27985;SDS011;15453;53.692;10.168;2023-08-08T11:48:25;5.22;;;0.95;;
27985;SDS011;15453;53.692;10.168;2023-08-08T11:50:52;4.18;;;1.00;;
27985;SDS011;15453;53.692;10.168;2023-08-08T11:53:18;3.10;;;1.15;;
27985;SDS011;15453;53.692;10.168;2023-08-08T11:55:44;5.18;;;1.20;;
27985;SDS011;15453;53.692;10.168;2023-08-08T11:58:12;6.03;;;1.25;;
27985;SDS011;15453;53.692;10.168;2023-08-08T12:00:38;5.15;;;1.30;;
27985;SDS011;15453;53.692;10.168;2023-08-08T12:03:03;10.00;;;1.52;;
27985;SDS011;15453;53.692;10.168;2023-08-08T12:05:29;6.85;;;1.48;;
27985;SDS011;15453;53.692;10.168;2023-08-08T12:08:00;4.95;;;1.50;;
27985;SDS011;15453;53.692;10.168;2023-08-08T12:10:26;7.80;;;1.65;;
27985;SDS011;15453;53.692;10.168;2023-08-08T12:12:52;6.65;;;1.75;;
27985;SDS011;15453;53.692;10.168;2023-08-08T12:15:19;6.20;;;1.33;;
27985;SDS011;15453;53.692;10.168;2023-08-08T12:17:45;6.85;;;1.50;;
27985;SDS011;15453;53.692;10.168;2023-08-08T12:20:11;4.35;;;1.45;;
27985;SDS011;15453;53.692;10.168;2023-08-08T12:22:36;4.38;;;1.58;;
27985;SDS011;15453;53.692;10.168;2023-08-08T12:25:02;4.97;;;1.05;;
27985;SDS011;15453;53.692;10.168;2023-08-08T12:27:28;5.32;;;1.35;;
27985;SDS011;15453;53.692;10.168;2023-08-08T12:29:54;4.80;;;1.35;;
27985;SDS011;15453;53.692;10.168;2023-08-08T12:32:19;5.65;;;1.45;;
27985;SDS011;15453;53.692;10.168;2023-08-08T12:34:48;5.18;;;1.20;;
27985;SDS011;15453;53.692;10.168;2023-08-08T12:37:13;5.00;;;1.48;;
27985;SDS011;15453;53.692;10.168;2023-08-08T12:39:39;7.07;;;1.38;;
27985;SDS011;15453;53.692;10.168;2023-08-08T12:42:04;6.35;;;1.63;;
27985;SDS011;15453;53.692;10.168;2023-08-08T12:44:29;5.28;;;1.38;;
27985;SDS011;15453;53.692;10.168;2023-08-08T12:46:55;5.85;;;1.17;;
27985;SDS011;15453;53.692;10.168;2023-08-08T12:49:20;5.57;;;2.00;;
27985;SDS011;15453;53.692;10.168;2023-08-08T12:51:45;4.45;;;1.48;;
27985;SDS011;15453;53.692;10.168;2023-08-08T12:54:11;5.90;;;1.52;;
27985;SDS011;15453;53.692;10.168;2023-08-08T12:56:36;7.63;;;1.40;;
27985;SDS011;15453;53.692;10.168;2023-08-08T12:59:01;5.43;;;1.40;;
27985;SDS011;15453;53.692;10.168;2023-08-08T13:01:27;5.88;;;1.77;;
27985;SDS011;15453;53.692;10.168;2023-08-08T13:03:53;4.60;;;1.48;;
27985;SDS011;15453;53.692;10.168;2023-08-08T13:06:18;4.85;;;1.33;;
27985;SDS011;15453;53.692;10.168;2023-08-08T13:08:43;5.05;;;1.40;;
27985;SDS011;15453;53.692;10.168;2023-08-08T13:11:09;7.00;;;1.58;;
27985;SDS011;15453;53.692;10.168;2023-08-08T13:13:34;4.53;;;1.13;;
27985;SDS011;15453;53.692;10.168;2023-08-08T13:16:00;4.97;;;1.35;;
27985;SDS011;15453;53.692;10.168;2023-08-08T13:18:25;6.03;;;1.17;;
27985;SDS011;15453;53.692;10.168;2023-08-08T13:20:50;4.82;;;1.70;;
27985;SDS011;15453;53.692;10.168;2023-08-08T13:23:16;6.57;;;1.85;;
27985;SDS011;15453;53.692;10.168;2023-08-08T13:25:41;3.63;;;1.23;;
27985;SDS011;15453;53.692;10.168;2023-08-08T13:28:06;6.70;;;2.00;;
27985;SDS011;15453;53.692;10.168;2023-08-08T13:30:32;6.15;;;1.67;;
27985;SDS011;15453;53.692;10.168;2023-08-08T13:32:59;6.90;;;1.65;;
27985;SDS011;15453;53.692;10.168;2023-08-08T13:35:24;4.90;;;1.63;;
27985;SDS011;15453;53.692;10.168;2023-08-08T13:37:49;4.65;;;1.42;;
27985;SDS011;15453;53.692;10.168;2023-08-08T13:40:17;7.32;;;1.92;;
27985;SDS011;15453;53.692;10.168;2023-08-08T13:42:42;6.95;;;1.75;;
27985;SDS011;15453;53.692;10.168;2023-08-08T13:45:09;6.00;;;1.35;;
27985;SDS011;15453;53.692;10.168;2023-08-08T13:47:35;6.82;;;1.83;;
27985;SDS011;15453;53.692;10.168;2023-08-08T13:50:00;5.57;;;1.75;;
27985;SDS011;15453;53.692;10.168;2023-08-08T13:52:25;5.28;;;1.50;;
27985;SDS011;15453;53.692;10.168;2023-08-08T13:54:51;6.78;;;1.58;;
27985;SDS011;15453;53.692;10.168;2023-08-08T13:57:16;6.95;;;1.50;;
27985;SDS011;15453;53.692;10.168;2023-08-08T13:59:41;10.07;;;1.80;;
27985;SDS011;15453;53.692;10.168;2023-08-08T14:02:07;4.80;;;1.55;;
27985;SDS011;15453;53.692;10.168;2023-08-08T14:04:32;5.53;;;1.50;;
27985;SDS011;15453;53.692;10.168;2023-08-08T14:06:57;5.53;;;1.70;;
27985;SDS011;15453;53.692;10.168;2023-08-08T14:09:22;5.03;;;1.80;;
27985;SDS011;15453;53.692;10.168;2023-08-08T14:11:48;5.78;;;1.70;;
27985;SDS011;15453;53.692;10.168;2023-08-08T14:14:13;4.13;;;1.58;;
27985;SDS011;15453;53.692;10.168;2023-08-08T14:16:38;6.75;;;1.65;;
27985;SDS011;15453;53.692;10.168;2023-08-08T14:19:04;6.18;;;1.40;;
27985;SDS011;15453;53.692;10.168;2023-08-08T14:21:29;7.95;;;1.90;;
27985;SDS011;15453;53.692;10.168;2023-08-08T14:23:54;6.20;;;1.23;;
27985;SDS011;15453;53.692;10.168;2023-08-08T14:26:19;6.93;;;1.60;;